createdAt,value
2022-09-12T00:00:51.850Z,10.67
2022-09-12T00:01:51.878Z,10.63
2022-09-12T00:02:51.782Z,10.54
2022-09-12T00:03:51.768Z,10.55
2022-09-12T00:04:51.759Z,10.55
2022-09-12T00:05:51.746Z,10.55
2022-09-12T00:06:51.734Z,10.59
2022-09-12T00:07:51.824Z,10.63
2022-09-12T00:08:51.716Z,10.65
2022-09-12T00:09:51.701Z,10.60
2022-09-12T00:10:51.717Z,10.55
2022-09-12T00:11:51.686Z,10.52
2022-09-12T00:12:51.676Z,10.50
2022-09-12T00:13:51.665Z,10.50
2022-09-12T00:14:51.653Z,10.44
2022-09-12T00:15:51.643Z,10.41
2022-09-12T00:16:51.701Z,10.34
2022-09-12T00:17:51.645Z,10.41
2022-09-12T00:18:51.609Z,10.45
2022-09-12T00:19:51.601Z,10.50
2022-09-12T00:20:51.598Z,10.51
2022-09-12T00:21:51.588Z,10.50
2022-09-12T00:22:51.570Z,10.45
2022-09-12T00:23:51.612Z,10.36
2022-09-12T00:24:51.553Z,10.29
2022-09-12T00:25:51.541Z,10.25
2022-09-12T00:26:51.528Z,10.22
2022-09-12T00:27:51.518Z,10.20
2022-09-12T00:28:51.510Z,10.15
2022-09-12T00:29:51.503Z,10.17
2022-09-12T00:30:51.490Z,10.17
2022-09-12T00:31:51.540Z,10.18
2022-09-12T00:32:51.468Z,10.22
2022-09-12T00:33:51.479Z,10.22
2022-09-12T00:34:51.445Z,10.33
2022-09-12T00:35:51.442Z,10.32
2022-09-12T00:36:51.630Z,10.30
2022-09-12T00:37:51.423Z,10.29
2022-09-12T00:38:51.404Z,10.23
2022-09-12T00:39:51.431Z,10.15
2022-09-12T00:40:51.385Z,10.14
2022-09-12T00:41:51.371Z,10.09
2022-09-12T00:42:51.362Z,10.07
2022-09-12T00:43:51.353Z,10.08
2022-09-12T00:44:51.347Z,10.04
2022-09-12T00:45:51.361Z,10.02
2022-09-12T00:46:51.321Z,9.99
2022-09-12T00:47:51.314Z,9.94
2022-09-12T00:48:51.361Z,9.94
2022-09-12T00:49:57.376Z,10.07
2022-09-12T00:50:51.284Z,10.08
2022-09-12T00:51:51.488Z,10.14
2022-09-12T00:52:51.259Z,10.23
2022-09-12T00:53:51.249Z,10.27
2022-09-12T00:54:51.237Z,10.26
2022-09-12T00:55:51.226Z,10.20
2022-09-12T00:56:51.216Z,10.17
2022-09-12T00:57:51.209Z,10.15
2022-09-12T00:58:51.206Z,10.18
2022-09-12T00:59:51.185Z,10.20
2022-09-12T01:00:51.198Z,10.15
2022-09-12T01:01:51.381Z,10.15
2022-09-12T01:02:51.159Z,10.20
2022-09-12T01:03:51.147Z,10.17
2022-09-12T01:04:51.188Z,10.32
2022-09-12T01:05:51.145Z,10.34
2022-09-12T01:06:51.124Z,10.38
2022-09-12T01:07:51.106Z,10.36
2022-09-12T01:08:51.195Z,10.34
2022-09-12T01:09:51.085Z,10.40
2022-09-12T01:10:51.073Z,10.44
2022-09-12T01:11:51.060Z,10.42
2022-09-12T01:12:51.053Z,10.44
2022-09-12T01:13:51.042Z,10.44
2022-09-12T01:14:51.038Z,10.41
2022-09-12T01:15:51.019Z,10.38
2022-09-12T01:16:51.017Z,10.36
2022-09-12T01:17:51.001Z,10.36
2022-09-12T01:18:56.999Z,10.34
2022-09-12T01:19:50.978Z,10.38
2022-09-12T01:20:50.971Z,10.32
2022-09-12T01:21:50.982Z,10.29
2022-09-12T01:22:50.949Z,10.30
2022-09-12T01:23:50.941Z,10.27
2022-09-12T01:24:50.929Z,10.26
2022-09-12T01:25:50.915Z,10.30
2022-09-12T01:26:50.969Z,10.41
2022-09-12T01:27:50.904Z,10.45
2022-09-12T01:28:50.893Z,10.55
2022-09-12T01:29:50.888Z,10.66
2022-09-12T01:30:50.868Z,10.69
2022-09-12T01:31:50.906Z,10.70
2022-09-12T01:32:50.852Z,10.73
2022-09-12T01:33:50.832Z,10.75
2022-09-12T01:34:50.834Z,10.75
2022-09-12T01:35:50.814Z,10.73
2022-09-12T01:36:50.804Z,10.81
2022-09-12T01:37:50.868Z,10.85
2022-09-12T01:38:50.790Z,10.90
2022-09-12T01:39:50.867Z,10.96
2022-09-12T01:40:50.761Z,10.98
2022-09-12T01:41:50.755Z,10.99
2022-09-12T01:42:50.756Z,11.01
2022-09-12T01:43:50.731Z,11.02
2022-09-12T01:44:50.723Z,10.98
2022-09-12T01:45:50.765Z,10.96
2022-09-12T01:46:50.703Z,10.93
2022-09-12T01:47:50.691Z,10.88
2022-09-12T01:48:50.683Z,10.85
2022-09-12T01:49:50.672Z,10.78
2022-09-12T01:50:50.664Z,10.78
2022-09-12T01:51:50.653Z,10.77
2022-09-12T01:52:50.637Z,10.80
2022-09-12T01:53:56.658Z,10.83
2022-09-12T01:54:50.670Z,10.83
2022-09-12T01:55:50.608Z,10.90
2022-09-12T01:56:50.597Z,10.91
2022-09-12T01:57:50.793Z,10.93
2022-09-12T01:58:50.577Z,10.91
2022-09-12T01:59:50.570Z,10.90
2022-09-12T02:00:56.624Z,10.95
2022-09-12T02:01:50.595Z,10.96
2022-09-12T02:02:50.537Z,11.01
2022-09-12T02:03:50.525Z,11.02
2022-09-12T02:04:50.513Z,11.03
2022-09-12T02:05:50.511Z,11.08
2022-09-12T02:06:50.497Z,11.08
2022-09-12T02:07:50.482Z,11.10
2022-09-12T02:08:50.474Z,11.13
2022-09-12T02:09:50.527Z,11.10
2022-09-12T02:10:50.454Z,11.17
2022-09-12T02:11:50.439Z,11.18
2022-09-12T02:12:50.529Z,11.25
2022-09-12T02:13:50.610Z,11.28
2022-09-12T02:14:50.408Z,11.35
2022-09-12T02:15:50.397Z,11.37
2022-09-12T02:16:50.399Z,11.40
2022-09-12T02:17:50.583Z,11.44
2022-09-12T02:18:50.375Z,11.47
2022-09-12T02:19:50.358Z,11.54
2022-09-12T02:20:50.348Z,11.57
2022-09-12T02:21:50.336Z,11.58
2022-09-12T02:22:50.329Z,11.58
2022-09-12T02:23:50.322Z,11.60
2022-09-12T02:24:50.309Z,11.62
2022-09-12T02:25:50.319Z,11.69
2022-09-12T02:26:50.283Z,11.67
2022-09-12T02:27:50.278Z,11.69
2022-09-12T02:28:50.267Z,11.70
2022-09-12T02:29:50.256Z,11.69
2022-09-12T02:30:50.291Z,11.73
2022-09-12T02:31:50.232Z,11.72
2022-09-12T02:32:50.224Z,11.76
2022-09-12T02:33:50.214Z,11.76
2022-09-12T02:34:50.201Z,11.82
2022-09-12T02:35:50.192Z,11.86
2022-09-12T02:36:50.185Z,11.85
2022-09-12T02:37:50.174Z,11.86
2022-09-12T02:38:50.163Z,11.93
2022-09-12T02:39:50.175Z,11.95
2022-09-12T02:40:50.142Z,12.00
2022-09-12T02:41:50.156Z,12.01
2022-09-12T02:42:56.125Z,12.03
2022-09-12T02:43:50.110Z,12.08
2022-09-12T02:44:50.099Z,12.08
2022-09-12T02:45:50.130Z,12.13
2022-09-12T02:46:50.078Z,12.18
2022-09-12T02:47:50.068Z,12.15
2022-09-12T02:48:50.055Z,12.15
2022-09-12T02:49:50.046Z,12.13
2022-09-12T02:50:50.036Z,12.16
2022-09-12T02:51:50.028Z,12.13
2022-09-12T02:52:50.015Z,12.20
2022-09-12T02:53:50.005Z,12.22
2022-09-12T02:54:49.999Z,12.22
2022-09-12T02:55:49.984Z,12.23
2022-09-12T02:56:49.973Z,12.26
2022-09-12T02:57:49.990Z,12.31
2022-09-12T02:58:49.954Z,12.33
2022-09-12T02:59:49.945Z,12.37
2022-09-12T03:00:55.973Z,12.41
2022-09-12T03:01:49.951Z,12.44
2022-09-12T03:02:49.909Z,12.49
2022-09-12T03:03:49.900Z,12.48
2022-09-12T03:04:49.889Z,12.48
2022-09-12T03:05:49.881Z,12.53
2022-09-12T03:06:49.869Z,12.53
2022-09-12T03:07:49.856Z,12.48
2022-09-12T03:08:49.849Z,12.45
2022-09-12T03:09:49.838Z,12.41
2022-09-12T03:10:49.827Z,12.40
2022-09-12T03:11:49.816Z,12.37
2022-09-12T03:12:49.807Z,12.36
2022-09-12T03:13:49.817Z,12.33
2022-09-12T03:14:49.786Z,12.36
2022-09-12T03:15:49.778Z,12.36
2022-09-12T03:16:49.806Z,12.34
2022-09-12T03:17:49.751Z,12.40
2022-09-12T03:18:49.742Z,12.40
2022-09-12T03:19:49.732Z,12.48
2022-09-12T03:20:49.721Z,12.46
2022-09-12T03:21:49.712Z,12.53
2022-09-12T03:22:51.182Z,12.58
2022-09-12T03:23:49.689Z,12.58
2022-09-12T03:24:49.683Z,12.58
2022-09-12T03:25:49.672Z,12.56
2022-09-12T03:26:49.658Z,12.61
2022-09-12T03:27:49.652Z,12.61
2022-09-12T03:28:49.640Z,12.61
2022-09-12T03:29:49.649Z,12.64
2022-09-12T03:30:49.677Z,12.65
2022-09-12T03:31:49.608Z,12.61
2022-09-12T03:32:49.597Z,12.59
2022-09-12T03:33:49.585Z,12.65
2022-09-12T03:34:49.574Z,12.67
2022-09-12T03:35:49.566Z,12.67
2022-09-12T03:36:49.552Z,12.68
2022-09-12T03:37:49.543Z,12.71
2022-09-12T03:38:49.531Z,12.68
2022-09-12T03:39:49.538Z,12.71
2022-09-12T03:40:54.564Z,12.70
2022-09-12T03:41:49.507Z,12.70
2022-09-12T03:42:49.494Z,12.71
2022-09-12T03:43:55.492Z,12.71
2022-09-12T03:44:49.467Z,12.75
2022-09-12T03:45:49.520Z,12.75
2022-09-12T03:46:49.446Z,12.71
2022-09-12T03:47:49.637Z,12.72
2022-09-12T03:48:49.425Z,12.70
2022-09-12T03:49:49.417Z,12.71
2022-09-12T03:50:49.406Z,12.77
2022-09-12T03:51:49.395Z,12.78
2022-09-12T03:52:49.384Z,12.83
2022-09-12T03:53:49.379Z,12.87
2022-09-12T03:54:49.364Z,12.92
2022-09-12T03:55:49.353Z,12.89
2022-09-12T03:56:49.344Z,12.90
2022-09-12T03:57:49.338Z,12.90
2022-09-12T03:58:49.320Z,12.95
2022-09-12T03:59:49.311Z,12.95
2022-09-12T04:00:49.550Z,12.90
2022-09-12T04:01:49.316Z,12.79
2022-09-12T04:02:49.281Z,12.79
2022-09-12T04:03:49.271Z,12.70
2022-09-12T04:04:49.264Z,12.70
2022-09-12T04:05:49.250Z,12.68
2022-09-12T04:06:49.238Z,12.67
2022-09-12T04:07:49.226Z,12.65
2022-09-12T04:08:49.213Z,12.64
2022-09-12T04:09:49.204Z,12.67
2022-09-12T04:10:49.197Z,12.65
2022-09-12T04:11:49.185Z,12.64
2022-09-12T04:12:55.286Z,12.59
2022-09-12T04:13:49.167Z,12.61
2022-09-12T04:14:49.156Z,12.61
2022-09-12T04:15:49.206Z,12.56
2022-09-12T04:16:49.168Z,12.61
2022-09-12T04:17:49.146Z,12.55
2022-09-12T04:18:49.141Z,12.53
2022-09-12T04:19:49.105Z,12.52
2022-09-12T04:20:49.091Z,12.56
2022-09-12T04:21:49.079Z,12.55
2022-09-12T04:22:49.068Z,12.59
2022-09-12T04:23:49.061Z,12.65
2022-09-12T04:24:49.049Z,12.64
2022-09-12T04:25:49.039Z,12.64
2022-09-12T04:26:49.026Z,12.65
2022-09-12T04:27:49.021Z,12.64
2022-09-12T04:28:49.005Z,12.68
2022-09-12T04:29:49.197Z,12.70
2022-09-12T04:30:49.044Z,12.68
2022-09-12T04:31:48.974Z,12.59
2022-09-12T04:32:48.970Z,12.61
2022-09-12T04:33:48.979Z,12.56
2022-09-12T04:34:48.943Z,12.61
2022-09-12T04:35:48.879Z,12.59
2022-09-12T04:36:48.925Z,12.64
2022-09-12T04:37:48.872Z,12.64
2022-09-12T04:38:54.856Z,12.58
2022-09-12T04:39:49.010Z,12.56
2022-09-12T04:40:48.881Z,12.56
2022-09-12T04:41:48.830Z,12.55
2022-09-12T04:42:48.808Z,12.48
2022-09-12T04:43:48.808Z,12.48
2022-09-12T04:44:48.785Z,12.49
2022-09-12T04:45:48.792Z,12.53
2022-09-12T04:46:48.761Z,12.56
2022-09-12T04:47:48.756Z,12.56
2022-09-12T04:48:50.524Z,12.56
2022-09-12T04:49:48.752Z,12.59
2022-09-12T04:50:48.719Z,12.58
2022-09-12T04:51:48.710Z,12.59
2022-09-12T04:52:48.707Z,12.58
2022-09-12T04:53:48.692Z,12.52
2022-09-12T04:54:48.681Z,12.53
2022-09-12T04:55:48.671Z,12.55
2022-09-12T04:56:48.662Z,12.49
2022-09-12T04:57:48.646Z,12.52
2022-09-12T04:58:48.641Z,12.52
2022-09-12T04:59:48.630Z,12.46
2022-09-12T05:00:48.621Z,12.36
2022-09-12T05:01:48.792Z,12.37
2022-09-12T05:02:48.594Z,12.31
2022-09-12T05:03:48.593Z,12.31
2022-09-12T05:04:48.627Z,12.31
2022-09-12T05:05:48.586Z,12.30
2022-09-12T05:06:48.552Z,12.34
2022-09-12T05:07:48.545Z,12.36
2022-09-12T05:08:48.538Z,12.38
2022-09-12T05:09:48.520Z,12.41
2022-09-12T05:10:48.512Z,12.40
2022-09-12T05:12:05.518Z,12.40
2022-09-12T05:12:49.525Z,12.46
2022-09-12T05:13:48.477Z,12.45
2022-09-12T05:14:48.466Z,12.44
2022-09-12T05:15:48.471Z,12.46
2022-09-12T05:16:49.574Z,12.45
2022-09-12T05:17:48.435Z,12.46
2022-09-12T05:18:48.424Z,12.40
2022-09-12T05:19:48.493Z,12.37
2022-09-12T05:20:48.403Z,12.30
2022-09-12T05:21:48.418Z,12.28
2022-09-12T05:22:48.381Z,12.30
2022-09-12T05:23:48.370Z,12.33
2022-09-12T05:24:50.549Z,12.31
2022-09-12T05:25:48.352Z,12.36
2022-09-12T05:26:48.342Z,12.36
2022-09-12T05:27:50.528Z,12.34
2022-09-12T05:28:48.369Z,12.34
2022-09-12T05:29:48.314Z,12.34
2022-09-12T05:30:48.508Z,12.34
2022-09-12T05:31:48.489Z,12.38
2022-09-12T05:32:48.278Z,12.34
2022-09-12T05:33:48.265Z,12.28
2022-09-12T05:34:48.259Z,12.27
2022-09-12T05:35:48.249Z,12.28
2022-09-12T05:36:48.240Z,12.26
2022-09-12T05:37:48.246Z,12.26
2022-09-12T05:38:48.214Z,12.33
2022-09-12T05:39:48.220Z,12.33
2022-09-12T05:40:48.199Z,12.34
2022-09-12T05:41:48.187Z,12.40
2022-09-12T05:42:48.177Z,12.44
2022-09-12T05:43:48.168Z,12.45
2022-09-12T05:44:48.148Z,12.48
2022-09-12T05:45:48.169Z,12.53
2022-09-12T05:46:48.129Z,12.55
2022-09-12T05:47:48.125Z,12.52
2022-09-12T05:48:50.471Z,12.49
2022-09-12T05:49:48.101Z,12.52
2022-09-12T05:50:48.088Z,12.49
2022-09-12T05:51:48.284Z,12.49
2022-09-12T05:52:48.068Z,12.48
2022-09-12T05:53:48.082Z,12.36
2022-09-12T05:54:48.049Z,12.22
2022-09-12T05:55:48.037Z,12.18
2022-09-12T05:56:48.025Z,12.18
2022-09-12T05:57:48.013Z,12.12
2022-09-12T05:58:48.006Z,12.13
2022-09-12T05:59:47.996Z,12.18
2022-09-12T06:00:47.983Z,12.23
2022-09-12T06:01:48.061Z,12.31
2022-09-12T06:02:47.963Z,12.40
2022-09-12T06:03:47.953Z,12.52
2022-09-12T06:04:47.943Z,12.49
2022-09-12T06:05:50.631Z,12.28
2022-09-12T06:06:48.226Z,12.28
2022-09-12T06:07:47.913Z,12.28
2022-09-12T06:08:48.172Z,12.26
2022-09-12T06:09:47.920Z,12.27
2022-09-12T06:10:47.879Z,12.36
2022-09-12T06:11:47.867Z,12.46
2022-09-12T06:12:48.065Z,12.59
2022-09-12T06:13:47.847Z,12.65
2022-09-12T06:14:47.840Z,12.75
2022-09-12T06:15:47.827Z,12.79
2022-09-12T06:16:48.095Z,12.89
2022-09-12T06:17:51.295Z,12.86
2022-09-12T06:18:47.791Z,12.67
2022-09-12T06:19:47.786Z,12.72
2022-09-12T06:20:47.778Z,12.83
2022-09-12T06:21:47.766Z,12.96
2022-09-12T06:22:47.754Z,13.08
2022-09-12T06:23:47.757Z,13.17
2022-09-12T06:24:47.731Z,13.14
2022-09-12T06:25:47.798Z,13.00
2022-09-12T06:26:47.716Z,13.00
2022-09-12T06:27:47.703Z,13.00
2022-09-12T06:28:47.763Z,12.92
2022-09-12T06:29:47.679Z,13.00
2022-09-12T06:30:47.706Z,13.10
2022-09-12T06:31:47.662Z,13.10
2022-09-12T06:32:47.647Z,13.23
2022-09-12T06:33:47.638Z,13.38
2022-09-12T06:34:47.833Z,13.47
2022-09-12T06:35:47.717Z,13.26
2022-09-12T06:36:47.606Z,13.04
2022-09-12T06:37:47.597Z,12.97
2022-09-12T06:38:47.674Z,12.92
2022-09-12T06:39:47.593Z,12.89
2022-09-12T06:40:47.560Z,12.93
2022-09-12T06:41:47.581Z,13.00
2022-09-12T06:42:47.547Z,13.17
2022-09-12T06:43:47.529Z,13.33
2022-09-12T06:44:47.521Z,13.11
2022-09-12T06:45:47.540Z,13.15
2022-09-12T06:46:47.553Z,13.10
2022-09-12T06:47:47.693Z,13.01
2022-09-12T06:48:47.538Z,13.10
2022-09-12T06:49:47.471Z,13.15
2022-09-12T06:50:47.458Z,13.25
2022-09-12T06:51:47.448Z,13.28
2022-09-12T06:52:47.441Z,13.14
2022-09-12T06:53:47.426Z,13.08
2022-09-12T06:54:47.420Z,13.10
2022-09-12T06:55:47.407Z,13.20
2022-09-12T06:56:47.396Z,13.41
2022-09-12T06:57:47.409Z,13.61
2022-09-12T06:58:47.639Z,13.74
2022-09-12T06:59:53.372Z,13.81
2022-09-12T07:00:47.354Z,13.95
2022-09-12T07:01:47.437Z,14.10
2022-09-12T07:02:47.334Z,14.21
2022-09-12T07:03:47.324Z,14.35
2022-09-12T07:04:47.318Z,14.33
2022-09-12T07:05:47.304Z,14.27
2022-09-12T07:06:47.295Z,14.33
2022-09-12T07:07:47.289Z,14.46
2022-09-12T07:08:47.273Z,14.65
2022-09-12T07:09:47.261Z,14.82
2022-09-12T07:10:47.252Z,14.83
2022-09-12T07:11:47.246Z,14.69
2022-09-12T07:12:47.230Z,14.43
2022-09-12T07:13:47.395Z,14.32
2022-09-12T07:14:47.209Z,14.32
2022-09-12T07:15:47.195Z,14.45
2022-09-12T07:16:47.212Z,14.65
2022-09-12T07:17:47.174Z,14.87
2022-09-12T07:18:47.169Z,14.83
2022-09-12T07:19:47.161Z,14.75
2022-09-12T07:20:47.145Z,14.42
2022-09-12T07:21:47.132Z,14.21
2022-09-12T07:22:47.133Z,14.17
2022-09-12T07:23:47.420Z,14.25
2022-09-12T07:24:47.109Z,14.25
2022-09-12T07:25:47.094Z,14.29
2022-09-12T07:26:47.081Z,14.33
2022-09-12T07:27:51.021Z,14.39
2022-09-12T07:28:47.062Z,14.36
2022-09-12T07:29:47.072Z,14.58
2022-09-12T07:30:47.067Z,14.90
2022-09-12T07:31:47.027Z,15.00
2022-09-12T07:32:47.148Z,15.13
2022-09-12T07:33:51.171Z,15.34
2022-09-12T07:34:48.034Z,15.57
2022-09-12T07:35:46.989Z,15.80
2022-09-12T07:36:46.979Z,15.84
2022-09-12T07:37:46.965Z,15.54
2022-09-12T07:38:47.116Z,15.34
2022-09-12T07:39:53.030Z,15.53
2022-09-12T07:40:46.942Z,15.72
2022-09-12T07:41:47.130Z,15.82
2022-09-12T07:42:46.911Z,15.96
2022-09-12T07:43:46.989Z,16.23
2022-09-12T07:44:46.895Z,16.45
2022-09-12T07:45:46.994Z,16.56
2022-09-12T07:46:46.874Z,16.69
2022-09-12T07:47:46.858Z,16.75
2022-09-12T07:48:46.854Z,16.59
2022-09-12T07:49:46.838Z,16.55
2022-09-12T07:50:46.829Z,16.62
2022-09-12T07:51:46.820Z,17.07
2022-09-12T07:52:46.814Z,17.21
2022-09-12T07:53:46.901Z,17.31
2022-09-12T07:54:46.786Z,17.58
2022-09-12T07:55:46.777Z,17.61
2022-09-12T07:56:46.767Z,17.59
2022-09-12T07:57:46.757Z,17.67
2022-09-12T07:58:46.744Z,17.70
2022-09-12T07:59:52.810Z,17.85
2022-09-12T08:00:47.810Z,17.94
2022-09-12T08:01:46.774Z,17.98
2022-09-12T08:02:46.756Z,17.98
2022-09-12T08:03:46.788Z,17.89
2022-09-12T08:04:46.684Z,18.16
2022-09-12T08:05:46.669Z,18.47
2022-09-12T08:06:46.668Z,18.36
2022-09-12T08:07:46.652Z,18.39
2022-09-12T08:08:46.645Z,18.57
2022-09-12T08:09:46.634Z,18.85
2022-09-12T08:10:46.627Z,18.92
2022-09-12T08:11:46.610Z,18.88
2022-09-12T08:12:46.596Z,18.95
2022-09-12T08:13:49.574Z,19.12
2022-09-12T08:14:46.578Z,19.15
2022-09-12T08:15:46.604Z,19.10
2022-09-12T08:16:46.569Z,18.80
2022-09-12T08:17:46.575Z,18.50
2022-09-12T08:18:46.537Z,18.14
2022-09-12T08:19:46.548Z,18.13
2022-09-12T08:20:46.516Z,18.52
2022-09-12T08:21:46.505Z,18.75
2022-09-12T08:22:46.498Z,18.99
2022-09-12T08:23:46.637Z,18.94
2022-09-12T08:24:46.509Z,18.70
2022-09-12T08:25:46.469Z,19.09
2022-09-12T08:26:46.454Z,20.87
2022-09-12T08:27:46.447Z,21.44
2022-09-12T08:28:46.434Z,21.09
2022-09-12T08:29:46.420Z,21.52
2022-09-12T08:30:46.436Z,21.34
2022-09-12T08:31:46.400Z,21.90
2022-09-12T08:32:46.395Z,22.50
2022-09-12T08:33:46.582Z,22.62
2022-09-12T08:34:46.374Z,23.47
2022-09-12T08:35:46.356Z,24.52
2022-09-12T08:36:46.356Z,25.01
2022-09-12T08:37:46.336Z,24.40
2022-09-12T08:38:46.331Z,24.40
2022-09-12T08:39:46.469Z,25.07
2022-09-12T08:40:46.307Z,25.75
2022-09-12T08:41:46.296Z,25.64
2022-09-12T08:42:46.287Z,25.90
2022-09-12T08:43:46.419Z,25.01
2022-09-12T08:44:46.265Z,25.27
2022-09-12T08:45:46.281Z,24.83
2022-09-12T08:46:47.045Z,25.37
2022-09-12T08:47:46.237Z,26.34
2022-09-12T08:48:46.226Z,26.95
2022-09-12T08:49:46.241Z,26.97
2022-09-12T08:50:49.826Z,27.56
2022-09-12T08:51:46.194Z,28.29
2022-09-12T08:52:46.189Z,28.40
2022-09-12T08:53:46.299Z,27.64
2022-09-12T08:54:46.167Z,28.10
2022-09-12T08:55:46.163Z,28.06
2022-09-12T08:56:46.140Z,28.21
2022-09-12T08:57:46.137Z,28.83
2022-09-12T08:58:46.122Z,27.64
2022-09-12T08:59:46.131Z,27.32
2022-09-12T09:00:46.104Z,27.12
2022-09-12T09:01:46.158Z,27.62
2022-09-12T09:02:46.204Z,28.66
2022-09-12T09:03:46.318Z,29.23
2022-09-12T09:04:46.061Z,29.26
2022-09-12T09:05:46.076Z,29.66
2022-09-12T09:06:46.053Z,30.35
2022-09-12T09:07:46.030Z,29.92
2022-09-12T09:08:46.025Z,29.87
2022-09-12T09:09:46.017Z,29.35
2022-09-12T09:10:46.004Z,28.95
2022-09-12T09:11:46.107Z,29.10
2022-09-12T09:12:45.985Z,28.78
2022-09-12T09:13:46.103Z,29.20
2022-09-12T09:14:51.976Z,28.44
2022-09-12T09:15:46.017Z,28.81
2022-09-12T09:16:45.949Z,29.01
2022-09-12T09:17:45.939Z,28.85
2022-09-12T09:18:45.928Z,28.43
2022-09-12T09:19:50.121Z,29.23
2022-09-12T09:20:45.913Z,29.82
2022-09-12T09:21:45.918Z,29.18
2022-09-12T09:22:45.891Z,29.05
2022-09-12T09:23:45.989Z,27.29
2022-09-12T09:24:45.870Z,27.83
2022-09-12T09:25:45.895Z,27.77
2022-09-12T09:26:45.853Z,27.17
2022-09-12T09:27:45.841Z,27.65
2022-09-12T09:28:45.833Z,27.41
2022-09-12T09:29:45.825Z,28.52
2022-09-12T09:30:45.942Z,29.26
2022-09-12T09:31:45.806Z,28.77
2022-09-12T09:32:45.803Z,29.51
2022-09-12T09:33:46.036Z,29.38
2022-09-12T09:34:45.979Z,29.95
2022-09-12T09:35:45.769Z,30.05
2022-09-12T09:36:45.756Z,30.90
2022-09-12T09:37:45.773Z,32.00
2022-09-12T09:38:45.903Z,31.65
2022-09-12T09:39:45.809Z,31.87
2022-09-12T09:40:51.730Z,32.17
2022-09-12T09:41:45.712Z,32.70
2022-09-12T09:42:45.716Z,32.06
2022-09-12T09:43:45.695Z,32.39
2022-09-12T09:44:45.690Z,31.54
2022-09-12T09:45:52.036Z,31.76
2022-09-12T09:46:45.667Z,31.95
2022-09-12T09:47:45.657Z,32.47
2022-09-12T09:48:45.667Z,32.40
2022-09-12T09:49:45.849Z,32.32
2022-09-12T09:50:45.637Z,32.88
2022-09-12T09:52:34.341Z,33.83
2022-09-12T09:53:28.329Z,33.85
2022-09-12T09:54:28.301Z,33.11
2022-09-12T09:55:28.290Z,32.67
2022-09-12T09:56:34.287Z,32.56
2022-09-12T09:57:28.274Z,32.43
2022-09-12T09:58:28.262Z,32.77
2022-09-12T09:59:28.254Z,33.31
2022-09-12T10:00:28.251Z,34.22
2022-09-12T10:01:28.316Z,34.25
2022-09-12T10:02:28.297Z,33.48
2022-09-12T10:03:28.218Z,31.70
2022-09-12T10:04:28.219Z,31.73
2022-09-12T10:05:28.205Z,32.20
2022-09-12T10:06:34.223Z,33.31
2022-09-12T10:07:28.190Z,34.21
2022-09-12T10:08:28.177Z,34.47
2022-09-12T10:09:28.197Z,34.81
2022-09-12T10:10:28.175Z,34.62
2022-09-12T10:11:28.159Z,35.22
2022-09-12T10:12:28.250Z,35.10
2022-09-12T10:13:28.143Z,35.60
2022-09-12T10:14:28.134Z,35.84
2022-09-12T10:15:28.154Z,36.53
2022-09-12T10:16:28.324Z,37.07
2022-09-12T10:17:33.186Z,37.00
2022-09-12T10:18:30.301Z,37.29
2022-09-12T10:19:34.094Z,37.65
2022-09-12T10:20:28.077Z,37.58
2022-09-12T10:21:28.092Z,37.41
2022-09-12T10:22:34.273Z,37.96
2022-09-12T10:23:34.057Z,38.06
2022-09-12T10:24:28.045Z,37.00
2022-09-12T10:25:28.059Z,37.54
2022-09-12T10:26:28.230Z,38.00
2022-09-12T10:27:28.019Z,38.32
2022-09-12T10:28:28.020Z,38.37
2022-09-12T10:29:28.011Z,38.44
2022-09-12T10:30:28.158Z,38.71
2022-09-12T10:31:27.990Z,38.42
2022-09-12T10:32:30.896Z,37.88
2022-09-12T10:33:27.975Z,36.01
2022-09-12T10:34:27.982Z,34.61
2022-09-12T10:35:27.962Z,33.98
2022-09-12T10:36:27.951Z,32.51
2022-09-12T10:37:34.151Z,31.99
2022-09-12T10:38:27.943Z,33.22
2022-09-12T10:39:27.928Z,33.81
2022-09-12T10:40:27.924Z,34.35
2022-09-12T10:41:33.948Z,33.81
2022-09-12T10:42:27.905Z,32.46
2022-09-12T10:43:27.897Z,32.84
2022-09-12T10:44:27.895Z,32.75
2022-09-12T10:45:28.186Z,33.12
2022-09-12T10:47:08.629Z,33.60
2022-09-12T10:48:07.357Z,33.40
2022-09-12T10:49:08.607Z,32.94
2022-09-12T10:50:02.593Z,33.41
2022-09-12T10:51:02.581Z,34.71
2022-09-12T10:52:02.583Z,34.58
2022-09-12T10:53:02.575Z,33.92
2022-09-12T10:54:04.566Z,33.49
2022-09-12T10:55:02.754Z,33.78
2022-09-12T10:56:02.552Z,33.23
2022-09-12T10:57:02.574Z,33.48
2022-09-12T10:58:04.599Z,33.21
2022-09-12T10:59:02.530Z,33.27
2022-09-12T11:00:02.527Z,33.50
2022-09-12T11:01:02.604Z,33.11
2022-09-12T11:02:02.562Z,33.46
2022-09-12T11:03:02.906Z,33.16
2022-09-12T11:04:02.699Z,33.43
2022-09-12T11:05:02.490Z,33.53
2022-09-12T11:06:08.492Z,34.77
2022-09-12T11:07:02.481Z,35.89
2022-09-12T11:08:02.478Z,36.43
2022-09-12T11:09:02.499Z,35.56
2022-09-12T11:10:02.456Z,34.10
2022-09-12T11:11:02.712Z,33.44
2022-09-12T11:12:02.447Z,33.25
2022-09-12T11:13:02.467Z,32.72
2022-09-12T11:14:02.442Z,33.58
2022-09-12T11:15:02.433Z,34.35
2022-09-12T11:16:02.475Z,34.49
2022-09-12T11:17:02.424Z,34.50
2022-09-12T11:18:02.616Z,34.93
2022-09-12T11:19:02.446Z,34.69
2022-09-12T11:20:02.404Z,33.97
2022-09-12T11:21:02.399Z,34.24
2022-09-12T11:22:02.391Z,34.52
2022-09-12T11:23:02.404Z,34.62
2022-09-12T11:24:02.483Z,34.71
2022-09-12T11:25:08.377Z,35.93
2022-09-12T11:26:41.122Z,37.05
2022-09-12T11:27:41.303Z,38.03
2022-09-12T11:28:44.102Z,38.14
2022-09-12T11:29:43.100Z,38.00
2022-09-12T11:30:41.125Z,37.87
2022-09-12T11:31:41.081Z,38.60
2022-09-12T11:32:41.078Z,39.28
2022-09-12T11:33:43.197Z,39.17
2022-09-12T11:34:41.274Z,38.86
2022-09-12T11:35:41.058Z,38.31
2022-09-12T11:36:41.257Z,38.12
2022-09-12T11:37:41.049Z,38.31
2022-09-12T11:38:43.098Z,38.50
2022-09-12T11:39:41.119Z,38.03
2022-09-12T11:40:41.033Z,38.87
2022-09-12T11:41:41.024Z,39.44
2022-09-12T11:42:41.026Z,38.57
2022-09-12T11:43:41.017Z,38.93
2022-09-12T11:44:41.009Z,37.95
2022-09-12T11:45:41.263Z,36.58
2022-09-12T11:46:41.009Z,37.18
2022-09-12T11:47:40.996Z,34.56
2022-09-12T11:48:40.993Z,32.09
2022-09-12T11:49:40.985Z,32.49
2022-09-12T11:50:40.979Z,33.19
2022-09-12T11:51:40.983Z,33.12
2022-09-12T11:52:40.965Z,33.19
2022-09-12T11:53:47.076Z,33.97
2022-09-12T11:54:40.955Z,35.18
2022-09-12T11:55:40.953Z,35.99
2022-09-12T11:56:40.950Z,35.43
2022-09-12T11:57:40.996Z,34.77
2022-09-12T11:58:40.939Z,34.91
2022-09-12T11:59:40.931Z,34.71
2022-09-12T12:00:40.956Z,33.81
2022-09-12T12:01:45.036Z,33.83
2022-09-12T12:02:42.195Z,34.16
2022-09-12T12:03:46.986Z,34.43
2022-09-12T12:04:46.914Z,34.87
2022-09-12T12:05:40.902Z,34.71
2022-09-12T12:06:47.103Z,33.89
2022-09-12T12:07:44.761Z,33.23
2022-09-12T12:08:40.884Z,32.94
2022-09-12T12:09:40.883Z,33.11
2022-09-12T12:10:46.887Z,32.97
2022-09-12T12:11:40.872Z,33.60
2022-09-12T12:12:46.873Z,33.09
2022-09-12T12:13:41.066Z,33.27
2022-09-12T12:14:40.855Z,33.52
2022-09-12T12:15:40.922Z,33.40
2022-09-12T12:16:40.866Z,33.30
2022-09-12T12:17:40.837Z,33.44
2022-09-12T12:18:47.135Z,33.28
2022-09-12T12:19:41.086Z,34.58
2022-09-12T12:20:40.820Z,35.70
2022-09-12T12:21:46.824Z,36.11
2022-09-12T12:22:40.813Z,35.05
2022-09-12T12:23:46.890Z,34.16
2022-09-12T12:24:40.801Z,33.97
2022-09-12T12:25:40.797Z,34.43
2022-09-12T12:26:40.805Z,32.66
2022-09-12T12:27:40.841Z,32.00
2022-09-12T12:28:40.787Z,32.59
2022-09-12T12:29:46.986Z,33.64
2022-09-12T12:30:40.766Z,34.46
2022-09-12T12:31:40.770Z,34.56
2022-09-12T12:32:40.783Z,34.58
2022-09-12T12:33:46.760Z,35.18
2022-09-12T12:34:40.751Z,35.90
2022-09-12T12:35:40.753Z,36.18
2022-09-12T12:36:46.744Z,36.52
2022-09-12T12:37:40.729Z,36.84
2022-09-12T12:38:40.726Z,37.12
2022-09-12T12:39:40.784Z,37.37
2022-09-12T12:40:40.717Z,37.47
2022-09-12T12:41:46.727Z,37.68
2022-09-12T12:42:40.706Z,37.27
2022-09-12T12:43:47.037Z,36.19
2022-09-12T12:44:40.690Z,34.54
2022-09-12T12:45:40.687Z,33.65
2022-09-12T12:46:46.696Z,33.30
2022-09-12T12:47:46.712Z,33.77
2022-09-12T12:48:40.883Z,33.72
2022-09-12T12:49:40.669Z,32.63
2022-09-12T12:50:40.659Z,32.34
2022-09-12T12:51:40.664Z,32.59
2022-09-12T12:52:40.646Z,33.11
2022-09-12T12:53:40.847Z,33.21
2022-09-12T12:54:40.641Z,33.12